sensor_id;sensor_type;location;lat;lon;timestamp;P1;durP1;ratioP1;P2;durP2;ratioP2
27223;SDS011;14965;50.660;13.226;2023-08-21T00:00:52;43.72;;;30.90;;
27223;SDS011;14965;50.660;13.226;2023-08-21T00:03:18;44.15;;;30.73;;
27223;SDS011;14965;50.660;13.226;2023-08-21T00:05:44;39.50;;;26.98;;
27223;SDS011;14965;50.660;13.226;2023-08-21T00:08:10;27.25;;;21.88;;
27223;SDS011;14965;50.660;13.226;2023-08-21T00:10:37;30.67;;;22.73;;
27223;SDS011;14965;50.660;13.226;2023-08-21T00:13:04;24.65;;;20.58;;
27223;SDS011;14965;50.660;13.226;2023-08-21T00:15:30;24.90;;;20.45;;
27223;SDS011;14965;50.660;13.226;2023-08-21T00:17:56;25.10;;;18.70;;
27223;SDS011;14965;50.660;13.226;2023-08-21T00:20:22;21.42;;;16.05;;
27223;SDS011;14965;50.660;13.226;2023-08-21T00:22:48;20.98;;;15.68;;
27223;SDS011;14965;50.660;13.226;2023-08-21T00:25:14;20.70;;;15.93;;
27223;SDS011;14965;50.660;13.226;2023-08-21T00:27:40;21.33;;;15.95;;
27223;SDS011;14965;50.660;13.226;2023-08-21T00:30:09;20.58;;;15.68;;
27223;SDS011;14965;50.660;13.226;2023-08-21T00:32:36;23.50;;;19.63;;
27223;SDS011;14965;50.660;13.226;2023-08-21T00:35:02;34.50;;;25.35;;
27223;SDS011;14965;50.660;13.226;2023-08-21T00:37:29;32.85;;;23.13;;
27223;SDS011;14965;50.660;13.226;2023-08-21T00:39:55;36.22;;;28.05;;
27223;SDS011;14965;50.660;13.226;2023-08-21T00:42:21;30.88;;;23.80;;
27223;SDS011;14965;50.660;13.226;2023-08-21T00:44:47;31.17;;;24.38;;
27223;SDS011;14965;50.660;13.226;2023-08-21T00:47:14;36.22;;;26.00;;
27223;SDS011;14965;50.660;13.226;2023-08-21T00:49:40;25.35;;;18.52;;
27223;SDS011;14965;50.660;13.226;2023-08-21T00:52:06;21.92;;;16.85;;
27223;SDS011;14965;50.660;13.226;2023-08-21T00:54:36;22.75;;;15.00;;
27223;SDS011;14965;50.660;13.226;2023-08-21T00:57:03;17.95;;;14.70;;
27223;SDS011;14965;50.660;13.226;2023-08-21T00:59:29;25.25;;;17.98;;
27223;SDS011;14965;50.660;13.226;2023-08-21T01:01:56;19.30;;;16.65;;
27223;SDS011;14965;50.660;13.226;2023-08-21T01:04:23;20.75;;;17.35;;
27223;SDS011;14965;50.660;13.226;2023-08-21T01:06:49;20.90;;;15.40;;
27223;SDS011;14965;50.660;13.226;2023-08-21T01:09:17;17.77;;;14.05;;
27223;SDS011;14965;50.660;13.226;2023-08-21T01:22:13;18.77;;;15.02;;
27223;SDS011;14965;50.660;13.226;2023-08-21T01:24:41;20.77;;;14.93;;
27223;SDS011;14965;50.660;13.226;2023-08-21T01:27:07;19.73;;;15.40;;
27223;SDS011;14965;50.660;13.226;2023-08-21T01:29:53;18.15;;;15.45;;
27223;SDS011;14965;50.660;13.226;2023-08-21T01:32:21;21.83;;;14.98;;
27223;SDS011;14965;50.660;13.226;2023-08-21T01:35:02;19.20;;;14.60;;
27223;SDS011;14965;50.660;13.226;2023-08-21T01:37:32;17.95;;;14.90;;
27223;SDS011;14965;50.660;13.226;2023-08-21T01:40:00;19.60;;;14.73;;
27223;SDS011;14965;50.660;13.226;2023-08-21T01:42:26;21.88;;;15.75;;
27223;SDS011;14965;50.660;13.226;2023-08-21T01:44:52;25.77;;;15.98;;
27223;SDS011;14965;50.660;13.226;2023-08-21T01:47:19;21.98;;;14.75;;
27223;SDS011;14965;50.660;13.226;2023-08-21T01:49:45;17.48;;;14.70;;
27223;SDS011;14965;50.660;13.226;2023-08-21T01:52:10;18.52;;;15.38;;
27223;SDS011;14965;50.660;13.226;2023-08-21T01:54:36;23.58;;;14.73;;
27223;SDS011;14965;50.660;13.226;2023-08-21T01:57:04;27.85;;;14.95;;
27223;SDS011;14965;50.660;13.226;2023-08-21T01:59:30;20.40;;;13.63;;
27223;SDS011;14965;50.660;13.226;2023-08-21T02:01:55;17.85;;;13.98;;
27223;SDS011;14965;50.660;13.226;2023-08-21T02:04:22;16.92;;;14.38;;
27223;SDS011;14965;50.660;13.226;2023-08-21T02:06:47;19.80;;;14.70;;
27223;SDS011;14965;50.660;13.226;2023-08-21T02:09:13;17.45;;;14.85;;
27223;SDS011;14965;50.660;13.226;2023-08-21T02:11:39;20.50;;;14.75;;
27223;SDS011;14965;50.660;13.226;2023-08-21T02:14:07;18.98;;;15.70;;
27223;SDS011;14965;50.660;13.226;2023-08-21T02:16:32;23.80;;;15.93;;
27223;SDS011;14965;50.660;13.226;2023-08-21T02:18:58;22.20;;;14.98;;
27223;SDS011;14965;50.660;13.226;2023-08-21T02:21:24;23.08;;;14.77;;
27223;SDS011;14965;50.660;13.226;2023-08-21T02:23:50;18.42;;;15.35;;
27223;SDS011;14965;50.660;13.226;2023-08-21T02:26:16;19.38;;;14.95;;
27223;SDS011;14965;50.660;13.226;2023-08-21T02:28:42;20.67;;;14.85;;
27223;SDS011;14965;50.660;13.226;2023-08-21T02:31:10;21.70;;;14.60;;
27223;SDS011;14965;50.660;13.226;2023-08-21T02:33:36;20.05;;;15.27;;
27223;SDS011;14965;50.660;13.226;2023-08-21T02:36:02;19.52;;;15.68;;
27223;SDS011;14965;50.660;13.226;2023-08-21T02:38:28;20.40;;;14.50;;
27223;SDS011;14965;50.660;13.226;2023-08-21T02:40:54;19.13;;;15.43;;
27223;SDS011;14965;50.660;13.226;2023-08-21T02:43:20;18.42;;;14.98;;
27223;SDS011;14965;50.660;13.226;2023-08-21T02:45:46;18.00;;;16.10;;
27223;SDS011;14965;50.660;13.226;2023-08-21T02:48:13;20.17;;;14.73;;
27223;SDS011;14965;50.660;13.226;2023-08-21T02:50:39;19.20;;;14.63;;
27223;SDS011;14965;50.660;13.226;2023-08-21T02:53:05;18.48;;;14.45;;
27223;SDS011;14965;50.660;13.226;2023-08-21T02:55:31;18.17;;;14.38;;
27223;SDS011;14965;50.660;13.226;2023-08-21T02:57:57;17.15;;;14.07;;
27223;SDS011;14965;50.660;13.226;2023-08-21T03:00:23;17.88;;;14.05;;
27223;SDS011;14965;50.660;13.226;2023-08-21T03:02:49;20.83;;;13.90;;
27223;SDS011;14965;50.660;13.226;2023-08-21T03:05:16;21.45;;;15.45;;
27223;SDS011;14965;50.660;13.226;2023-08-21T03:07:43;20.70;;;16.35;;
27223;SDS011;14965;50.660;13.226;2023-08-21T03:10:09;20.30;;;14.70;;
27223;SDS011;14965;50.660;13.226;2023-08-21T03:12:35;18.23;;;14.75;;
27223;SDS011;14965;50.660;13.226;2023-08-21T03:15:01;21.58;;;16.08;;
27223;SDS011;14965;50.660;13.226;2023-08-21T03:17:28;19.35;;;16.35;;
27223;SDS011;14965;50.660;13.226;2023-08-21T03:19:54;18.23;;;14.77;;
27223;SDS011;14965;50.660;13.226;2023-08-21T03:22:21;24.73;;;20.15;;
27223;SDS011;14965;50.660;13.226;2023-08-21T03:24:47;22.90;;;17.17;;
27223;SDS011;14965;50.660;13.226;2023-08-21T03:27:14;19.35;;;16.33;;
27223;SDS011;14965;50.660;13.226;2023-08-21T03:29:40;18.58;;;15.60;;
27223;SDS011;14965;50.660;13.226;2023-08-21T03:32:06;19.23;;;15.48;;
27223;SDS011;14965;50.660;13.226;2023-08-21T03:34:32;21.40;;;16.20;;
27223;SDS011;14965;50.660;13.226;2023-08-21T03:36:58;22.17;;;15.82;;
27223;SDS011;14965;50.660;13.226;2023-08-21T03:39:25;21.45;;;15.52;;
27223;SDS011;14965;50.660;13.226;2023-08-21T03:41:51;19.83;;;15.13;;
27223;SDS011;14965;50.660;13.226;2023-08-21T03:44:17;23.33;;;15.60;;
27223;SDS011;14965;50.660;13.226;2023-08-21T03:46:43;21.73;;;14.82;;
27223;SDS011;14965;50.660;13.226;2023-08-21T03:49:09;18.05;;;14.00;;
27223;SDS011;14965;50.660;13.226;2023-08-21T03:51:35;25.30;;;14.88;;
27223;SDS011;14965;50.660;13.226;2023-08-21T03:54:01;18.67;;;15.25;;
27223;SDS011;14965;50.660;13.226;2023-08-21T03:56:28;20.67;;;14.77;;
27223;SDS011;14965;50.660;13.226;2023-08-21T03:58:54;21.35;;;15.15;;
27223;SDS011;14965;50.660;13.226;2023-08-21T04:01:20;22.45;;;16.00;;
27223;SDS011;14965;50.660;13.226;2023-08-21T04:03:46;18.50;;;14.30;;
27223;SDS011;14965;50.660;13.226;2023-08-21T04:06:12;21.40;;;15.73;;
27223;SDS011;14965;50.660;13.226;2023-08-21T04:08:38;21.20;;;15.07;;
27223;SDS011;14965;50.660;13.226;2023-08-21T04:11:04;20.35;;;15.35;;
27223;SDS011;14965;50.660;13.226;2023-08-21T04:13:32;22.02;;;16.08;;
27223;SDS011;14965;50.660;13.226;2023-08-21T04:15:59;22.13;;;16.58;;
27223;SDS011;14965;50.660;13.226;2023-08-21T04:18:25;20.80;;;15.45;;
27223;SDS011;14965;50.660;13.226;2023-08-21T04:20:51;19.42;;;15.38;;
27223;SDS011;14965;50.660;13.226;2023-08-21T04:23:16;19.60;;;14.85;;
27223;SDS011;14965;50.660;13.226;2023-08-21T04:25:42;20.45;;;15.82;;
27223;SDS011;14965;50.660;13.226;2023-08-21T04:28:08;20.65;;;15.85;;
27223;SDS011;14965;50.660;13.226;2023-08-21T04:30:35;22.15;;;15.60;;
27223;SDS011;14965;50.660;13.226;2023-08-21T04:33:02;19.50;;;15.32;;
27223;SDS011;14965;50.660;13.226;2023-08-21T04:35:28;24.17;;;15.52;;
27223;SDS011;14965;50.660;13.226;2023-08-21T04:37:54;18.90;;;14.73;;
27223;SDS011;14965;50.660;13.226;2023-08-21T04:40:20;19.83;;;13.35;;
27223;SDS011;14965;50.660;13.226;2023-08-21T04:42:49;19.55;;;15.10;;
27223;SDS011;14965;50.660;13.226;2023-08-21T04:45:15;16.83;;;13.85;;
27223;SDS011;14965;50.660;13.226;2023-08-21T04:47:42;15.80;;;14.20;;
27223;SDS011;14965;50.660;13.226;2023-08-21T04:50:08;15.52;;;13.05;;
27223;SDS011;14965;50.660;13.226;2023-08-21T04:52:34;19.45;;;13.35;;
27223;SDS011;14965;50.660;13.226;2023-08-21T04:55:00;16.80;;;12.38;;
27223;SDS011;14965;50.660;13.226;2023-08-21T04:57:26;14.50;;;11.07;;
27223;SDS011;14965;50.660;13.226;2023-08-21T04:59:52;17.63;;;11.90;;
27223;SDS011;14965;50.660;13.226;2023-08-21T05:02:18;17.45;;;12.57;;
27223;SDS011;14965;50.660;13.226;2023-08-21T05:04:45;14.68;;;12.50;;
27223;SDS011;14965;50.660;13.226;2023-08-21T05:07:11;21.48;;;13.30;;
27223;SDS011;14965;50.660;13.226;2023-08-21T05:09:37;16.30;;;12.68;;
27223;SDS011;14965;50.660;13.226;2023-08-21T05:12:03;17.45;;;13.90;;
27223;SDS011;14965;50.660;13.226;2023-08-21T05:14:30;17.05;;;14.15;;
27223;SDS011;14965;50.660;13.226;2023-08-21T05:16:56;18.33;;;13.50;;
27223;SDS011;14965;50.660;13.226;2023-08-21T05:19:22;18.45;;;13.73;;
27223;SDS011;14965;50.660;13.226;2023-08-21T05:21:50;20.15;;;13.35;;
27223;SDS011;14965;50.660;13.226;2023-08-21T05:24:16;15.02;;;13.02;;
27223;SDS011;14965;50.660;13.226;2023-08-21T05:26:41;18.83;;;12.90;;
27223;SDS011;14965;50.660;13.226;2023-08-21T05:29:07;15.32;;;12.30;;
27223;SDS011;14965;50.660;13.226;2023-08-21T05:31:33;14.23;;;11.75;;
27223;SDS011;14965;50.660;13.226;2023-08-21T05:33:59;14.13;;;11.32;;
27223;SDS011;14965;50.660;13.226;2023-08-21T05:36:25;20.40;;;10.65;;
27223;SDS011;14965;50.660;13.226;2023-08-21T05:38:53;12.82;;;10.43;;
27223;SDS011;14965;50.660;13.226;2023-08-21T05:41:18;13.65;;;10.77;;
27223;SDS011;14965;50.660;13.226;2023-08-21T05:43:44;13.57;;;10.57;;
27223;SDS011;14965;50.660;13.226;2023-08-21T05:46:10;15.38;;;11.48;;
27223;SDS011;14965;50.660;13.226;2023-08-21T05:48:36;14.68;;;11.23;;
27223;SDS011;14965;50.660;13.226;2023-08-21T05:51:03;15.82;;;10.43;;
27223;SDS011;14965;50.660;13.226;2023-08-21T05:53:28;12.80;;;11.40;;
27223;SDS011;14965;50.660;13.226;2023-08-21T05:55:56;14.98;;;10.10;;
27223;SDS011;14965;50.660;13.226;2023-08-21T05:58:22;13.18;;;9.93;;
27223;SDS011;14965;50.660;13.226;2023-08-21T06:00:48;13.35;;;10.25;;
27223;SDS011;14965;50.660;13.226;2023-08-21T06:03:14;13.57;;;10.75;;
27223;SDS011;14965;50.660;13.226;2023-08-21T06:05:40;15.43;;;11.88;;
27223;SDS011;14965;50.660;13.226;2023-08-21T06:08:06;17.65;;;12.25;;
27223;SDS011;14965;50.660;13.226;2023-08-21T06:10:32;15.10;;;11.57;;
27223;SDS011;14965;50.660;13.226;2023-08-21T06:12:59;14.73;;;11.90;;
27223;SDS011;14965;50.660;13.226;2023-08-21T06:15:25;13.80;;;10.80;;
27223;SDS011;14965;50.660;13.226;2023-08-21T06:17:51;11.55;;;9.73;;
27223;SDS011;14965;50.660;13.226;2023-08-21T06:20:17;11.77;;;9.50;;
27223;SDS011;14965;50.660;13.226;2023-08-21T06:22:43;12.50;;;11.25;;
27223;SDS011;14965;50.660;13.226;2023-08-21T06:25:09;13.95;;;12.00;;
27223;SDS011;14965;50.660;13.226;2023-08-21T06:27:35;14.63;;;11.85;;
27223;SDS011;14965;50.660;13.226;2023-08-21T06:30:02;18.65;;;12.88;;
27223;SDS011;14965;50.660;13.226;2023-08-21T06:32:29;14.05;;;12.45;;
27223;SDS011;14965;50.660;13.226;2023-08-21T06:34:55;16.33;;;13.18;;
27223;SDS011;14965;50.660;13.226;2023-08-21T06:37:21;15.98;;;12.60;;
27223;SDS011;14965;50.660;13.226;2023-08-21T06:39:47;16.17;;;13.65;;
27223;SDS011;14965;50.660;13.226;2023-08-21T06:42:13;20.20;;;13.60;;
27223;SDS011;14965;50.660;13.226;2023-08-21T06:44:39;13.90;;;12.10;;
27223;SDS011;14965;50.660;13.226;2023-08-21T06:47:07;16.67;;;13.48;;
27223;SDS011;14965;50.660;13.226;2023-08-21T06:49:32;20.90;;;14.45;;
27223;SDS011;14965;50.660;13.226;2023-08-21T06:51:58;17.85;;;15.48;;
27223;SDS011;14965;50.660;13.226;2023-08-21T06:54:25;19.30;;;14.02;;
27223;SDS011;14965;50.660;13.226;2023-08-21T06:56:51;21.25;;;15.40;;
27223;SDS011;14965;50.660;13.226;2023-08-21T06:59:17;16.83;;;14.00;;
27223;SDS011;14965;50.660;13.226;2023-08-21T07:01:43;18.98;;;15.13;;
27223;SDS011;14965;50.660;13.226;2023-08-21T07:04:10;16.92;;;13.90;;
27223;SDS011;14965;50.660;13.226;2023-08-21T07:06:37;18.53;;;15.93;;
27223;SDS011;14965;50.660;13.226;2023-08-21T07:09:02;17.70;;;15.73;;
27223;SDS011;14965;50.660;13.226;2023-08-21T07:11:28;18.23;;;15.10;;
27223;SDS011;14965;50.660;13.226;2023-08-21T07:13:54;18.40;;;15.75;;
27223;SDS011;14965;50.660;13.226;2023-08-21T07:16:20;18.02;;;14.82;;
27223;SDS011;14965;50.660;13.226;2023-08-21T07:18:46;16.80;;;14.93;;
27223;SDS011;14965;50.660;13.226;2023-08-21T07:21:13;17.98;;;14.52;;
27223;SDS011;14965;50.660;13.226;2023-08-21T07:23:39;18.77;;;14.85;;
27223;SDS011;14965;50.660;13.226;2023-08-21T07:26:05;17.23;;;14.32;;
27223;SDS011;14965;50.660;13.226;2023-08-21T07:28:31;19.13;;;15.90;;
27223;SDS011;14965;50.660;13.226;2023-08-21T07:30:57;17.77;;;15.35;;
27223;SDS011;14965;50.660;13.226;2023-08-21T07:33:23;18.92;;;16.00;;
27223;SDS011;14965;50.660;13.226;2023-08-21T07:35:56;19.50;;;15.05;;
27223;SDS011;14965;50.660;13.226;2023-08-21T07:38:24;15.63;;;12.27;;
27223;SDS011;14965;50.660;13.226;2023-08-21T07:40:50;15.52;;;12.77;;
27223;SDS011;14965;50.660;13.226;2023-08-21T07:43:17;16.42;;;12.43;;
27223;SDS011;14965;50.660;13.226;2023-08-21T07:45:42;20.17;;;12.13;;
27223;SDS011;14965;50.660;13.226;2023-08-21T07:48:08;16.02;;;11.93;;
27223;SDS011;14965;50.660;13.226;2023-08-21T07:50:34;15.55;;;12.77;;
27223;SDS011;14965;50.660;13.226;2023-08-21T07:53:00;15.30;;;11.07;;
27223;SDS011;14965;50.660;13.226;2023-08-21T07:55:28;13.93;;;11.27;;
27223;SDS011;14965;50.660;13.226;2023-08-21T07:57:54;14.00;;;11.07;;
27223;SDS011;14965;50.660;13.226;2023-08-21T08:00:19;15.50;;;11.02;;
27223;SDS011;14965;50.660;13.226;2023-08-21T08:02:45;12.02;;;10.38;;
27223;SDS011;14965;50.660;13.226;2023-08-21T08:05:11;13.13;;;10.70;;
27223;SDS011;14965;50.660;13.226;2023-08-21T08:07:37;12.60;;;10.48;;
27223;SDS011;14965;50.660;13.226;2023-08-21T08:10:03;12.45;;;10.38;;
27223;SDS011;14965;50.660;13.226;2023-08-21T08:12:31;16.00;;;14.27;;
27223;SDS011;14965;50.660;13.226;2023-08-21T08:14:57;13.35;;;10.30;;
27223;SDS011;14965;50.660;13.226;2023-08-21T08:17:23;12.88;;;10.48;;
27223;SDS011;14965;50.660;13.226;2023-08-21T08:19:49;13.30;;;11.00;;
27223;SDS011;14965;50.660;13.226;2023-08-21T08:22:15;15.20;;;10.18;;
27223;SDS011;14965;50.660;13.226;2023-08-21T08:24:41;12.57;;;10.35;;
27223;SDS011;14965;50.660;13.226;2023-08-21T08:27:06;14.23;;;10.80;;
27223;SDS011;14965;50.660;13.226;2023-08-21T08:29:34;13.93;;;10.43;;
27223;SDS011;14965;50.660;13.226;2023-08-21T08:32:00;14.63;;;10.52;;
27223;SDS011;14965;50.660;13.226;2023-08-21T08:34:26;11.68;;;10.13;;
27223;SDS011;14965;50.660;13.226;2023-08-21T08:36:52;12.20;;;10.77;;
27223;SDS011;14965;50.660;13.226;2023-08-21T08:39:17;12.98;;;10.55;;
27223;SDS011;14965;50.660;13.226;2023-08-21T08:41:44;12.75;;;9.82;;
27223;SDS011;14965;50.660;13.226;2023-08-21T08:44:19;13.80;;;9.65;;
27223;SDS011;14965;50.660;13.226;2023-08-21T08:46:46;12.18;;;9.82;;
27223;SDS011;14965;50.660;13.226;2023-08-21T08:49:15;13.95;;;10.55;;
27223;SDS011;14965;50.660;13.226;2023-08-21T08:51:41;14.65;;;10.65;;
27223;SDS011;14965;50.660;13.226;2023-08-21T08:54:08;16.80;;;11.30;;
27223;SDS011;14965;50.660;13.226;2023-08-21T08:56:36;12.50;;;10.50;;
27223;SDS011;14965;50.660;13.226;2023-08-21T08:59:03;11.48;;;9.98;;
27223;SDS011;14965;50.660;13.226;2023-08-21T09:01:30;11.82;;;9.93;;
27223;SDS011;14965;50.660;13.226;2023-08-21T09:03:58;12.27;;;10.60;;
27223;SDS011;14965;50.660;13.226;2023-08-21T09:06:24;13.05;;;10.10;;
27223;SDS011;14965;50.660;13.226;2023-08-21T09:08:54;12.95;;;10.18;;
27223;SDS011;14965;50.660;13.226;2023-08-21T09:11:21;16.55;;;10.73;;
27223;SDS011;14965;50.660;13.226;2023-08-21T09:13:48;14.18;;;10.77;;
27223;SDS011;14965;50.660;13.226;2023-08-21T09:16:15;12.52;;;10.63;;
27223;SDS011;14965;50.660;13.226;2023-08-21T09:18:46;14.25;;;10.75;;
27223;SDS011;14965;50.660;13.226;2023-08-21T09:21:16;12.13;;;10.52;;
27223;SDS011;14965;50.660;13.226;2023-08-21T09:23:43;11.90;;;10.25;;
27223;SDS011;14965;50.660;13.226;2023-08-21T09:26:09;14.80;;;10.65;;
27223;SDS011;14965;50.660;13.226;2023-08-21T09:28:35;12.20;;;10.18;;
27223;SDS011;14965;50.660;13.226;2023-08-21T09:31:03;14.27;;;11.32;;
27223;SDS011;14965;50.660;13.226;2023-08-21T09:33:29;14.70;;;10.95;;
27223;SDS011;14965;50.660;13.226;2023-08-21T09:35:55;20.92;;;12.38;;
27223;SDS011;14965;50.660;13.226;2023-08-21T09:38:25;14.93;;;11.77;;
27223;SDS011;14965;50.660;13.226;2023-08-21T09:40:52;16.33;;;11.50;;
27223;SDS011;14965;50.660;13.226;2023-08-21T09:43:20;14.95;;;11.35;;
27223;SDS011;14965;50.660;13.226;2023-08-21T09:45:47;14.93;;;12.10;;
27223;SDS011;14965;50.660;13.226;2023-08-21T09:48:14;12.77;;;11.13;;
27223;SDS011;14965;50.660;13.226;2023-08-21T09:50:40;12.57;;;11.02;;
27223;SDS011;14965;50.660;13.226;2023-08-21T09:53:07;13.43;;;10.57;;
27223;SDS011;14965;50.660;13.226;2023-08-21T09:55:35;12.77;;;10.95;;
27223;SDS011;14965;50.660;13.226;2023-08-21T09:58:01;12.57;;;10.93;;
27223;SDS011;14965;50.660;13.226;2023-08-21T10:00:29;13.13;;;10.90;;
27223;SDS011;14965;50.660;13.226;2023-08-21T10:05:26;15.27;;;11.07;;
27223;SDS011;14965;50.660;13.226;2023-08-21T10:07:54;13.68;;;10.77;;
27223;SDS011;14965;50.660;13.226;2023-08-21T10:10:21;13.57;;;9.80;;
27223;SDS011;14965;50.660;13.226;2023-08-21T10:12:49;13.20;;;10.10;;
27223;SDS011;14965;50.660;13.226;2023-08-21T10:15:15;14.93;;;10.93;;
27223;SDS011;14965;50.660;13.226;2023-08-21T10:17:42;13.73;;;10.77;;
27223;SDS011;14965;50.660;13.226;2023-08-21T10:20:09;13.90;;;9.98;;
27223;SDS011;14965;50.660;13.226;2023-08-21T10:22:37;22.98;;;10.90;;
27223;SDS011;14965;50.660;13.226;2023-08-21T10:25:14;12.57;;;10.25;;
27223;SDS011;14965;50.660;13.226;2023-08-21T10:27:41;12.43;;;9.80;;
27223;SDS011;14965;50.660;13.226;2023-08-21T10:30:13;10.43;;;9.15;;
27223;SDS011;14965;50.660;13.226;2023-08-21T10:32:44;10.77;;;8.30;;
27223;SDS011;14965;50.660;13.226;2023-08-21T10:35:13;10.88;;;8.65;;
27223;SDS011;14965;50.660;13.226;2023-08-21T10:40:31;13.18;;;9.65;;
27223;SDS011;14965;50.660;13.226;2023-08-21T10:42:57;11.48;;;9.43;;
27223;SDS011;14965;50.660;13.226;2023-08-21T10:45:26;12.23;;;9.48;;
27223;SDS011;14965;50.660;13.226;2023-08-21T10:47:52;10.98;;;7.70;;
27223;SDS011;14965;50.660;13.226;2023-08-21T10:50:18;11.02;;;7.65;;
27223;SDS011;14965;50.660;13.226;2023-08-21T10:52:43;9.70;;;8.35;;
27223;SDS011;14965;50.660;13.226;2023-08-21T10:55:10;9.80;;;8.25;;
27223;SDS011;14965;50.660;13.226;2023-08-21T10:57:38;10.45;;;9.07;;
27223;SDS011;14965;50.660;13.226;2023-08-21T11:00:05;12.25;;;9.80;;
27223;SDS011;14965;50.660;13.226;2023-08-21T11:02:36;13.15;;;9.20;;
27223;SDS011;14965;50.660;13.226;2023-08-21T11:05:04;11.00;;;9.27;;
27223;SDS011;14965;50.660;13.226;2023-08-21T11:07:36;13.50;;;8.95;;
27223;SDS011;14965;50.660;13.226;2023-08-21T11:10:03;12.73;;;8.88;;
27223;SDS011;14965;50.660;13.226;2023-08-21T11:12:31;10.82;;;8.70;;
27223;SDS011;14965;50.660;13.226;2023-08-21T11:14:57;9.00;;;8.13;;
27223;SDS011;14965;50.660;13.226;2023-08-21T11:17:23;8.98;;;7.97;;
27223;SDS011;14965;50.660;13.226;2023-08-21T11:19:50;10.57;;;8.25;;
27223;SDS011;14965;50.660;13.226;2023-08-21T11:22:16;9.48;;;7.55;;
27223;SDS011;14965;50.660;13.226;2023-08-21T11:24:43;7.45;;;6.75;;
27223;SDS011;14965;50.660;13.226;2023-08-21T11:27:11;9.20;;;7.88;;
27223;SDS011;14965;50.660;13.226;2023-08-21T11:29:40;15.48;;;8.10;;
27223;SDS011;14965;50.660;13.226;2023-08-21T11:32:08;8.57;;;7.68;;
27223;SDS011;14965;50.660;13.226;2023-08-21T11:34:36;8.45;;;7.13;;
27223;SDS011;14965;50.660;13.226;2023-08-21T11:37:04;10.82;;;7.97;;
27223;SDS011;14965;50.660;13.226;2023-08-21T11:39:44;10.75;;;8.48;;
27223;SDS011;14965;50.660;13.226;2023-08-21T11:42:12;15.45;;;8.95;;
27223;SDS011;14965;50.660;13.226;2023-08-21T11:44:43;9.05;;;7.30;;
27223;SDS011;14965;50.660;13.226;2023-08-21T11:47:12;9.88;;;7.43;;
27223;SDS011;14965;50.660;13.226;2023-08-21T11:49:39;9.35;;;6.90;;
27223;SDS011;14965;50.660;13.226;2023-08-21T11:52:08;16.65;;;8.85;;
27223;SDS011;14965;50.660;13.226;2023-08-21T11:54:35;10.40;;;7.40;;
27223;SDS011;14965;50.660;13.226;2023-08-21T11:57:05;10.73;;;7.72;;
27223;SDS011;14965;50.660;13.226;2023-08-21T11:59:33;10.85;;;7.88;;
27223;SDS011;14965;50.660;13.226;2023-08-21T12:01:59;11.63;;;8.13;;
27223;SDS011;14965;50.660;13.226;2023-08-21T12:04:25;10.77;;;7.65;;
27223;SDS011;14965;50.660;13.226;2023-08-21T12:06:52;9.73;;;7.60;;
27223;SDS011;14965;50.660;13.226;2023-08-21T12:09:19;10.95;;;7.97;;
27223;SDS011;14965;50.660;13.226;2023-08-21T12:11:45;10.10;;;7.43;;
27223;SDS011;14965;50.660;13.226;2023-08-21T12:14:11;11.95;;;8.07;;
27223;SDS011;14965;50.660;13.226;2023-08-21T12:16:37;9.18;;;7.65;;
27223;SDS011;14965;50.660;13.226;2023-08-21T12:19:02;8.73;;;7.03;;
27223;SDS011;14965;50.660;13.226;2023-08-21T12:21:28;9.70;;;8.10;;
27223;SDS011;14965;50.660;13.226;2023-08-21T12:23:55;10.05;;;7.72;;
27223;SDS011;14965;50.660;13.226;2023-08-21T12:26:22;8.88;;;8.00;;
27223;SDS011;14965;50.660;13.226;2023-08-21T12:28:48;9.95;;;7.38;;
27223;SDS011;14965;50.660;13.226;2023-08-21T12:31:15;9.60;;;7.22;;
27223;SDS011;14965;50.660;13.226;2023-08-21T12:33:41;9.90;;;6.50;;
27223;SDS011;14965;50.660;13.226;2023-08-21T12:36:07;8.65;;;6.28;;
27223;SDS011;14965;50.660;13.226;2023-08-21T12:38:33;9.32;;;6.45;;
27223;SDS011;14965;50.660;13.226;2023-08-21T12:40:58;7.80;;;5.95;;
27223;SDS011;14965;50.660;13.226;2023-08-21T12:43:28;10.18;;;6.25;;
27223;SDS011;14965;50.660;13.226;2023-08-21T12:45:55;6.95;;;6.20;;
27223;SDS011;14965;50.660;13.226;2023-08-21T12:48:21;8.75;;;5.32;;
27223;SDS011;14965;50.660;13.226;2023-08-21T12:50:47;7.80;;;5.72;;
27223;SDS011;14965;50.660;13.226;2023-08-21T12:53:13;7.28;;;5.95;;
27223;SDS011;14965;50.660;13.226;2023-08-21T12:55:39;9.38;;;6.15;;
27223;SDS011;14965;50.660;13.226;2023-08-21T12:58:05;7.63;;;5.43;;
27223;SDS011;14965;50.660;13.226;2023-08-21T13:00:32;9.23;;;6.18;;
27223;SDS011;14965;50.660;13.226;2023-08-21T13:02:58;8.27;;;5.75;;
27223;SDS011;14965;50.660;13.226;2023-08-21T13:05:25;7.03;;;6.30;;
27223;SDS011;14965;50.660;13.226;2023-08-21T13:07:51;8.25;;;6.47;;
27223;SDS011;14965;50.660;13.226;2023-08-21T13:10:16;12.70;;;6.18;;
27223;SDS011;14965;50.660;13.226;2023-08-21T13:12:43;7.40;;;5.78;;
27223;SDS011;14965;50.660;13.226;2023-08-21T13:15:09;9.93;;;5.90;;
27223;SDS011;14965;50.660;13.226;2023-08-21T13:17:36;9.45;;;6.82;;
27223;SDS011;14965;50.660;13.226;2023-08-21T13:20:05;10.30;;;6.85;;
27223;SDS011;14965;50.660;13.226;2023-08-21T13:22:43;8.35;;;6.93;;
27223;SDS011;14965;50.660;13.226;2023-08-21T13:25:11;10.73;;;7.10;;
27223;SDS011;14965;50.660;13.226;2023-08-21T13:27:37;9.65;;;6.90;;
27223;SDS011;14965;50.660;13.226;2023-08-21T13:30:03;11.38;;;5.97;;
27223;SDS011;14965;50.660;13.226;2023-08-21T13:32:30;10.52;;;6.07;;
27223;SDS011;14965;50.660;13.226;2023-08-21T13:34:57;8.23;;;5.60;;
27223;SDS011;14965;50.660;13.226;2023-08-21T13:37:23;6.60;;;5.93;;
27223;SDS011;14965;50.660;13.226;2023-08-21T13:39:49;6.47;;;5.80;;
27223;SDS011;14965;50.660;13.226;2023-08-21T13:42:15;6.70;;;5.40;;
27223;SDS011;14965;50.660;13.226;2023-08-21T13:44:41;8.40;;;5.78;;
27223;SDS011;14965;50.660;13.226;2023-08-21T13:47:07;8.00;;;5.95;;
27223;SDS011;14965;50.660;13.226;2023-08-21T13:49:33;11.07;;;6.13;;
27223;SDS011;14965;50.660;13.226;2023-08-21T13:52:00;6.93;;;5.20;;
27223;SDS011;14965;50.660;13.226;2023-08-21T13:54:26;7.18;;;5.35;;
27223;SDS011;14965;50.660;13.226;2023-08-21T13:56:52;11.57;;;5.95;;
27223;SDS011;14965;50.660;13.226;2023-08-21T13:59:17;8.90;;;6.20;;
27223;SDS011;14965;50.660;13.226;2023-08-21T14:01:44;8.32;;;6.15;;
27223;SDS011;14965;50.660;13.226;2023-08-21T14:04:10;9.75;;;5.80;;
27223;SDS011;14965;50.660;13.226;2023-08-21T14:06:36;9.68;;;5.55;;
27223;SDS011;14965;50.660;13.226;2023-08-21T14:09:03;11.13;;;5.95;;
27223;SDS011;14965;50.660;13.226;2023-08-21T14:11:29;9.27;;;6.03;;
27223;SDS011;14965;50.660;13.226;2023-08-21T14:13:55;8.15;;;5.95;;
27223;SDS011;14965;50.660;13.226;2023-08-21T14:16:21;11.95;;;6.30;;
27223;SDS011;14965;50.660;13.226;2023-08-21T14:18:47;9.00;;;6.03;;
27223;SDS011;14965;50.660;13.226;2023-08-21T14:21:12;7.97;;;6.00;;
27223;SDS011;14965;50.660;13.226;2023-08-21T14:23:38;10.52;;;6.15;;
27223;SDS011;14965;50.660;13.226;2023-08-21T14:26:06;8.45;;;6.10;;